Time;durP1;ratioP1;P1;durP2;ratioP2;P2;SDS_P1;SDS_P2;PMS_P1;PMS_P2;Temp;Humidity;BMP_temperature;BMP_pressure;BME280_temperature;BME280_humidity;BME280_pressure;Samples;Min_cycle;Max_cycle;Signal;HPM_P1;HPM_P2
2023/03/14 00:01:18;;;;;;;2.22;2.13;;;;;;;;;;6334041;22;20089;-74
2023/03/14 00:03:44;;;;;;;2.35;2.25;;;;;;;;;;6306497;22;20018;-74
2023/03/14 00:06:10;;;;;;;2.40;2.28;;;;;;;;;;6306485;22;20022;-74
2023/03/14 00:08:36;;;;;;;2.80;2.35;;;;;;;;;;6306968;22;20056;-74
2023/03/14 00:11:06;;;;;;;2.50;2.30;;;;;;;;;;6334685;22;20128;-73
2023/03/14 00:13:32;;;;;;;2.50;2.40;;;;;;;;;;6306246;22;20014;-74
2023/03/14 00:16:02;;;;;;;2.85;2.65;;;;;;;;;;6306631;22;20450;-75
2023/03/14 00:18:28;;;;;;;4.85;2.45;;;;;;;;;;6333917;22;20023;-73
2023/03/14 00:20:56;;;;;;;2.53;2.33;;;;;;;;;;6334404;22;20358;-75
2023/03/14 00:23:23;;;;;;;2.92;2.72;;;;;;;;;;6334236;22;20359;-73
2023/03/14 00:25:49;;;;;;;2.70;2.58;;;;;;;;;;6306533;22;20463;-75
2023/03/14 00:28:15;;;;;;;2.28;2.17;;;;;;;;;;6334286;22;20045;-74
2023/03/14 00:30:41;;;;;;;2.72;2.53;;;;;;;;;;6306963;22;20011;-75
2023/03/14 00:33:09;;;;;;;5.65;2.40;;;;;;;;;;6274899;22;20363;-75
2023/03/14 00:35:35;;;;;;;2.13;2.03;;;;;;;;;;6302949;22;20011;-74
2023/03/14 00:38:01;;;;;;;2.08;1.98;;;;;;;;;;6302703;22;20097;-74
2023/03/14 00:40:27;;;;;;;2.75;2.25;;;;;;;;;;6302524;22;20065;-74
2023/03/14 00:42:54;;;;;;;2.25;2.15;;;;;;;;;;6302485;22;20064;-75
2023/03/14 00:45:20;;;;;;;2.58;2.38;;;;;;;;;;6300635;22;20015;-74
2023/03/14 00:47:46;;;;;;;3.20;3.00;;;;;;;;;;6302617;22;20015;-75
2023/03/14 00:50:12;;;;;;;2.15;1.98;;;;;;;;;;6275219;22;20543;-75
2023/03/14 00:52:39;;;;;;;2.95;2.40;;;;;;;;;;6302737;22;20022;-75
2023/03/14 00:55:06;;;;;;;2.10;2.00;;;;;;;;;;6301200;22;20034;-74
2023/03/14 00:57:32;;;;;;;2.10;2.00;;;;;;;;;;6301104;22;20065;-75
2023/03/14 00:59:58;;;;;;;2.50;2.30;;;;;;;;;;6304723;22;20109;-75
2023/03/14 01:02:24;;;;;;;1.90;1.80;;;;;;;;;;6302498;22;20045;-74
2023/03/14 01:04:50;;;;;;;2.38;2.17;;;;;;;;;;6302459;22;20019;-75
2023/03/14 01:07:16;;;;;;;2.22;2.08;;;;;;;;;;6304572;22;20014;-76
2023/03/14 01:09:42;;;;;;;2.30;2.20;;;;;;;;;;6304798;22;20015;-74
2023/03/14 01:12:08;;;;;;;2.30;2.10;;;;;;;;;;6304673;22;20015;-74
2023/03/14 01:14:35;;;;;;;2.40;2.28;;;;;;;;;;6304812;22;20011;-74
2023/03/14 01:17:02;;;;;;;2.50;2.35;;;;;;;;;;6303091;22;20076;-74
2023/03/14 01:19:28;;;;;;;2.28;2.17;;;;;;;;;;6302511;22;20019;-74
2023/03/14 01:21:54;;;;;;;2.35;2.15;;;;;;;;;;6302894;22;20478;-75
2023/03/14 01:24:21;;;;;;;3.38;3.15;;;;;;;;;;6302869;22;20122;-74
2023/03/14 01:26:47;;;;;;;4.68;2.38;;;;;;;;;;6304055;22;20007;-74
2023/03/14 01:29:13;;;;;;;2.75;2.55;;;;;;;;;;6302519;22;20421;-73
2023/03/14 01:31:40;;;;;;;2.90;2.70;;;;;;;;;;6277580;22;20061;-74
2023/03/14 01:34:06;;;;;;;3.10;2.50;;;;;;;;;;6302401;22;20084;-74
2023/03/14 01:36:32;;;;;;;2.83;2.72;;;;;;;;;;6276991;22;20512;-74
2023/03/14 01:39:01;;;;;;;2.30;2.15;;;;;;;;;;6302261;22;20019;-74
2023/03/14 01:41:27;;;;;;;2.20;2.10;;;;;;;;;;6302442;22;20015;-74
2023/03/14 01:43:56;;;;;;;2.88;2.53;;;;;;;;;;6302744;22;20003;-74
2023/03/14 01:46:41;;;;;;;2.42;2.33;;;;;;;;;;6302298;22;20088;-74
2023/03/14 01:49:07;;;;;;;2.30;2.20;;;;;;;;;;6276643;22;20458;-73
2023/03/14 01:51:36;;;;;;;3.00;2.80;;;;;;;;;;6276350;22;20328;-73
2023/03/14 01:54:12;;;;;;;3.35;3.05;;;;;;;;;;6302287;22;20019;-73
2023/03/14 01:56:38;;;;;;;2.53;2.42;;;;;;;;;;6302285;22;20034;-73
2023/03/14 01:59:05;;;;;;;3.47;3.28;;;;;;;;;;6302171;22;20019;-74
2023/03/14 02:01:31;;;;;;;2.60;2.47;;;;;;;;;;6303863;22;20023;-74
2023/03/14 02:03:59;;;;;;;3.22;3.03;;;;;;;;;;6302189;22;20011;-74
2023/03/14 02:06:29;;;;;;;3.10;2.80;;;;;;;;;;6276812;22;20018;-74
2023/03/14 02:08:58;;;;;;;4.55;4.25;;;;;;;;;;6251607;22;20007;-74
2023/03/14 02:11:27;;;;;;;5.22;4.75;;;;;;;;;;6302032;22;20102;-74
2023/03/14 02:14:06;;;;;;;5.93;4.38;;;;;;;;;;6276364;22;20094;-74
2023/03/14 02:16:55;;;;;;;5.15;4.75;;;;;;;;;;6280919;22;20030;-74
2023/03/14 02:19:50;;;;;;;5.57;5.13;;;;;;;;;;6303295;22;20550;-74
2023/03/14 02:22:30;;;;;;;4.40;4.10;;;;;;;;;;6301850;22;20011;-75
2023/03/14 02:25:01;;;;;;;;;;;;;;;;;;6302729;22;20560;-75
2023/03/14 02:27:27;;;;;;;3.80;3.50;;;;;;;;;;6275971;22;19910;-75
2023/03/14 02:29:55;;;;;;;4.13;3.63;;;;;;;;;;6302304;22;20019;-75
2023/03/14 02:32:21;;;;;;;4.40;4.10;;;;;;;;;;6301619;22;20022;-74
2023/03/14 02:34:49;;;;;;;4.57;4.18;;;;;;;;;;6302007;22;20435;-75
2023/03/14 02:37:15;;;;;;;4.63;4.18;;;;;;;;;;6301986;22;20108;-74
2023/03/14 02:39:44;;;;;;;4.97;4.47;;;;;;;;;;6302221;22;20026;-75
2023/03/14 02:42:10;;;;;;;4.40;4.10;;;;;;;;;;6303505;22;20447;-74
2023/03/14 02:44:47;;;;;;;5.13;4.72;;;;;;;;;;6276364;22;20022;-75
2023/03/14 02:47:13;;;;;;;5.07;4.60;;;;;;;;;;6274801;22;20033;-74
2023/03/14 02:49:39;;;;;;;5.38;4.88;;;;;;;;;;6303268;22;20015;-75
2023/03/14 02:52:05;;;;;;;27.25;7.82;;;;;;;;;;6303082;22;20013;-76
2023/03/14 02:54:32;;;;;;;6.38;5.82;;;;;;;;;;6275934;22;20532;-75
2023/03/14 02:56:58;;;;;;;8.88;6.35;;;;;;;;;;6301469;22;20114;-75
2023/03/14 02:59:24;;;;;;;10.77;9.40;;;;;;;;;;6301561;22;20019;-75
2023/03/14 03:01:55;;;;;;;7.90;6.45;;;;;;;;;;6302316;22;20011;-75
2023/03/14 03:04:21;;;;;;;19.10;7.50;;;;;;;;;;6275993;22;20101;-75
2023/03/14 03:06:47;;;;;;;8.55;7.85;;;;;;;;;;6301280;22;20063;-74
2023/03/14 03:09:14;;;;;;;7.43;6.57;;;;;;;;;;6275992;22;20022;-76
2023/03/14 03:11:40;;;;;;;8.20;7.45;;;;;;;;;;6301338;22;20030;-75
2023/03/14 03:14:09;;;;;;;17.05;9.95;;;;;;;;;;6302405;22;20023;-75
2023/03/14 03:16:34;;;;;;;6.68;6.07;;;;;;;;;;6301532;22;20015;-76
2023/03/14 03:19:01;;;;;;;9.27;8.55;;;;;;;;;;6303450;22;20015;-76
2023/03/14 03:21:27;;;;;;;6.97;6.43;;;;;;;;;;6300497;22;20513;-75
2023/03/14 03:23:53;;;;;;;9.20;7.72;;;;;;;;;;6276019;22;20090;-76
2023/03/14 03:26:19;;;;;;;10.35;7.03;;;;;;;;;;6301315;22;20011;-76
2023/03/14 03:28:46;;;;;;;8.43;7.47;;;;;;;;;;6304285;22;20037;-77
2023/03/14 03:31:15;;;;;;;12.85;11.57;;;;;;;;;;6301327;22;20095;-77
2023/03/14 03:33:41;;;;;;;12.77;9.90;;;;;;;;;;6328388;22;20019;-76
2023/03/14 03:36:08;;;;;;;11.80;10.38;;;;;;;;;;6307715;22;20011;-77
2023/03/14 03:38:36;;;;;;;9.95;8.95;;;;;;;;;;6281161;22;20026;-79
2023/03/14 03:41:07;;;;;;;8.88;7.97;;;;;;;;;;6334727;22;20588;-78
2023/03/14 03:43:34;;;;;;;10.10;9.05;;;;;;;;;;6281043;22;20050;-78
2023/03/14 03:46:05;;;;;;;9.27;8.45;;;;;;;;;;6307943;22;20117;-80
2023/03/14 03:48:31;;;;;;;8.55;6.55;;;;;;;;;;6307496;22;20071;-80
2023/03/14 03:51:00;;;;;;;8.38;7.70;;;;;;;;;;6283547;22;20014;-79
2023/03/14 03:53:27;;;;;;;7.43;6.72;;;;;;;;;;6306505;22;20010;-80
2023/03/14 03:55:53;;;;;;;9.73;5.80;;;;;;;;;;6307306;22;20041;-76
2023/03/14 03:58:19;;;;;;;7.47;6.60;;;;;;;;;;6306298;22;20006;-76
2023/03/14 04:00:45;;;;;;;17.73;7.43;;;;;;;;;;6306301;22;20017;-76
2023/03/14 04:03:11;;;;;;;8.25;7.55;;;;;;;;;;6306170;22;20010;-75
2023/03/14 04:05:37;;;;;;;8.57;7.82;;;;;;;;;;6306505;22;20076;-75
2023/03/14 04:08:08;;;;;;;8.48;7.78;;;;;;;;;;6306369;22;20132;-75
2023/03/14 04:10:34;;;;;;;9.35;8.45;;;;;;;;;;6306494;22;20047;-75
2023/03/14 04:13:05;;;;;;;5.05;4.70;;;;;;;;;;6306684;22;20086;-76
2023/03/14 04:15:32;;;;;;;6.55;5.93;;;;;;;;;;6281482;22;20017;-75
2023/03/14 04:18:02;;;;;;;9.70;6.53;;;;;;;;;;6306629;22;20483;-76
2023/03/14 04:20:30;;;;;;;7.32;6.72;;;;;;;;;;6305538;22;20019;-76
2023/03/14 04:22:56;;;;;;;5.68;5.18;;;;;;;;;;6277437;22;20363;-75
2023/03/14 04:25:23;;;;;;;10.00;6.72;;;;;;;;;;6303239;22;20035;-74
2023/03/14 04:27:54;;;;;;;6.35;5.75;;;;;;;;;;6277948;22;20006;-75
2023/03/14 04:30:26;;;;;;;6.70;6.20;;;;;;;;;;6330553;22;20015;-75
2023/03/14 04:32:58;;;;;;;6.93;6.32;;;;;;;;;;6304910;22;20054;-74
2023/03/14 04:35:26;;;;;;;8.45;5.40;;;;;;;;;;6305264;22;20418;-75
2023/03/14 04:37:59;;;;;;;6.78;6.18;;;;;;;;;;6283198;22;20035;-74
2023/03/14 04:40:25;;;;;;;4.55;4.15;;;;;;;;;;6281589;22;20067;-75
2023/03/14 04:42:55;;;;;;;5.50;5.00;;;;;;;;;;6308060;22;20011;-75
2023/03/14 04:45:22;;;;;;;6.05;5.13;;;;;;;;;;6282817;22;20026;-74
2023/03/14 04:47:48;;;;;;;5.30;4.60;;;;;;;;;;6282567;22;20017;-75
2023/03/14 04:50:18;;;;;;;6.50;5.72;;;;;;;;;;6336099;22;20367;-75
2023/03/14 04:52:44;;;;;;;5.90;5.40;;;;;;;;;;6308395;22;20469;-75
2023/03/14 04:55:10;;;;;;;5.32;4.97;;;;;;;;;;6282885;22;20366;-75
2023/03/14 04:57:38;;;;;;;6.47;5.85;;;;;;;;;;6308355;22;20014;-75
2023/03/14 05:00:07;;;;;;;4.70;4.07;;;;;;;;;;6308487;22;20092;-74
2023/03/14 05:02:56;;;;;;;5.00;4.40;;;;;;;;;;6334836;22;20344;-75
2023/03/14 05:05:41;;;;;;;7.60;4.40;;;;;;;;;;6286315;22;20015;-75
2023/03/14 05:08:17;;;;;;;5.07;4.68;;;;;;;;;;6284039;22;20010;-75
2023/03/14 05:10:56;;;;;;;4.75;4.35;;;;;;;;;;6308302;22;20011;-75
2023/03/14 05:13:45;;;;;;;6.65;4.40;;;;;;;;;;6280537;22;20021;-76
2023/03/14 05:16:33;;;;;;;3.97;3.67;;;;;;;;;;6308142;22;20458;-76
2023/03/14 05:19:37;;;;;;;5.18;4.68;;;;;;;;;;6314512;22;20022;-75
2023/03/14 05:22:23;;;;;;;4.40;3.88;;;;;;;;;;6285822;22;20026;-75
2023/03/14 05:25:07;;;;;;;5.50;4.70;;;;;;;;;;6286739;22;20017;-75
2023/03/14 05:27:33;;;;;;;5.05;4.53;;;;;;;;;;6282438;22;20017;-75
2023/03/14 05:30:25;;;;;;;4.68;4.38;;;;;;;;;;6299314;22;20007;-74
2023/03/14 05:33:07;;;;;;;3.95;3.65;;;;;;;;;;6335599;22;20022;-75
2023/03/14 05:35:52;;;;;;;6.07;4.20;;;;;;;;;;6336073;22;20085;-75
2023/03/14 05:38:40;;;;;;;4.38;4.07;;;;;;;;;;6286902;22;20014;-74
2023/03/14 05:41:44;;;;;;;5.00;4.60;;;;;;;;;;6209276;23;20016;-75
2023/03/14 05:44:31;;;;;;;3.78;3.47;;;;;;;;;;6210610;23;20022;-78
2023/03/14 05:47:32;;;;;;;4.13;3.83;;;;;;;;;;6257871;22;20527;-79
2023/03/14 05:50:15;;;;;;;4.22;3.88;;;;;;;;;;6337002;22;20014;-80
2023/03/14 05:53:02;;;;;;;3.70;3.40;;;;;;;;;;6338873;22;20022;-80
2023/03/14 05:55:51;;;;;;;4.05;3.75;;;;;;;;;;6289517;22;20063;-81
2023/03/14 05:58:31;;;;;;;4.90;4.50;;;;;;;;;;6307855;22;20820;-82
2023/03/14 06:01:08;;;;;;;5.55;3.92;;;;;;;;;;6342225;22;20041;-80
2023/03/14 06:03:45;;;;;;;5.20;3.60;;;;;;;;;;6298903;22;20003;-80
2023/03/14 06:06:11;;;;;;;3.88;3.63;;;;;;;;;;6316759;22;20017;-78
2023/03/14 06:08:37;;;;;;;4.25;3.85;;;;;;;;;;6347186;22;20014;-81
2023/03/14 06:11:05;;;;;;;3.72;3.10;;;;;;;;;;6322499;22;20007;-81
2023/03/14 06:13:31;;;;;;;4.72;3.47;;;;;;;;;;6355743;22;20014;-82
2023/03/14 06:15:57;;;;;;;2.83;2.63;;;;;;;;;;6326104;22;20010;-80
2023/03/14 06:18:23;;;;;;;3.40;3.10;;;;;;;;;;6322429;22;20060;-81
2023/03/14 06:20:49;;;;;;;4.50;3.85;;;;;;;;;;6295533;22;20014;-79
2023/03/14 06:23:22;;;;;;;3.75;3.45;;;;;;;;;;6273276;22;20029;-80
2023/03/14 06:25:48;;;;;;;4.35;3.25;;;;;;;;;;6316270;22;20010;-83
2023/03/14 06:28:14;;;;;;;3.95;3.60;;;;;;;;;;6339609;22;20013;-80
2023/03/14 06:30:41;;;;;;;3.92;3.63;;;;;;;;;;6311836;22;20014;-80
2023/03/14 06:33:09;;;;;;;3.97;3.55;;;;;;;;;;6318810;22;20015;-84
2023/03/14 06:35:36;;;;;;;4.07;3.70;;;;;;;;;;6352228;22;20098;-83
2023/03/14 06:38:02;;;;;;;4.88;4.20;;;;;;;;;;6316341;22;20018;-81
2023/03/14 06:40:28;;;;;;;4.32;3.50;;;;;;;;;;6315143;22;20458;-80
2023/03/14 06:43:03;;;;;;;4.20;3.80;;;;;;;;;;6294538;22;20011;-83
2023/03/14 06:45:31;;;;;;;3.60;3.33;;;;;;;;;;6316904;22;20015;-80
2023/03/14 06:47:58;;;;;;;6.25;3.75;;;;;;;;;;6286222;22;20014;-79
2023/03/14 06:50:34;;;;;;;3.50;3.20;;;;;;;;;;6284731;22;20011;-79
2023/03/14 06:53:00;;;;;;;3.30;3.00;;;;;;;;;;6309062;22;20018;-80
2023/03/14 06:55:27;;;;;;;4.07;3.60;;;;;;;;;;6306902;22;20780;-79
2023/03/14 06:57:53;;;;;;;4.00;3.60;;;;;;;;;;6307726;22;20011;-79
2023/03/14 07:00:20;;;;;;;3.67;3.38;;;;;;;;;;6281064;22;20197;-80
2023/03/14 07:02:46;;;;;;;3.25;3.00;;;;;;;;;;6280853;22;20011;-80
2023/03/14 07:05:40;;;;;;;3.53;3.22;;;;;;;;;;6328699;22;20014;-80
2023/03/14 07:08:07;;;;;;;6.22;3.88;;;;;;;;;;6335278;22;20577;-80
2023/03/14 07:10:33;;;;;;;5.05;3.15;;;;;;;;;;6308120;22;20038;-80
2023/03/14 07:12:59;;;;;;;3.50;3.20;;;;;;;;;;6288219;22;20034;-81
2023/03/14 07:15:29;;;;;;;3.08;2.88;;;;;;;;;;6294563;22;20010;-81
2023/03/14 07:17:59;;;;;;;3.27;3.07;;;;;;;;;;6323387;22;20013;-81
2023/03/14 07:20:26;;;;;;;3.20;3.00;;;;;;;;;;6322077;22;20451;-81
2023/03/14 07:22:52;;;;;;;3.08;2.88;;;;;;;;;;6294655;22;20037;-79
2023/03/14 07:25:28;;;;;;;3.53;3.22;;;;;;;;;;6316536;22;20183;-79
2023/03/14 07:27:55;;;;;;;3.42;3.15;;;;;;;;;;6349011;22;20093;-79
2023/03/14 07:30:21;;;;;;;3.78;3.47;;;;;;;;;;6293810;22;20044;-79
2023/03/14 07:32:48;;;;;;;4.65;3.97;;;;;;;;;;6289909;22;20022;-80
2023/03/14 07:35:14;;;;;;;3.00;2.80;;;;;;;;;;6290578;22;20029;-80
2023/03/14 07:37:41;;;;;;;3.35;3.15;;;;;;;;;;6306952;22;20003;-78
2023/03/14 07:40:10;;;;;;;4.68;3.85;;;;;;;;;;6309162;22;20049;-81
2023/03/14 07:42:36;;;;;;;3.47;3.17;;;;;;;;;;6307973;22;20018;-78
2023/03/14 07:45:18;;;;;;;3.63;3.33;;;;;;;;;;6284520;22;20038;-81
2023/03/14 07:47:44;;;;;;;3.95;3.05;;;;;;;;;;6335457;22;20022;-82
2023/03/14 07:50:10;;;;;;;3.78;3.35;;;;;;;;;;6339199;22;20340;-79
2023/03/14 07:52:36;;;;;;;4.38;3.58;;;;;;;;;;6341664;22;20007;-83
2023/03/14 07:55:02;;;;;;;3.50;3.28;;;;;;;;;;6316780;22;20042;-82
2023/03/14 07:57:28;;;;;;;3.53;3.30;;;;;;;;;;6315590;22;20371;-82
2023/03/14 07:59:54;;;;;;;3.15;2.95;;;;;;;;;;6342384;22;20074;-81
2023/03/14 08:02:22;;;;;;;3.55;3.35;;;;;;;;;;6289383;22;20069;-83
2023/03/14 08:04:48;;;;;;;4.78;3.63;;;;;;;;;;6348894;22;20046;-78
2023/03/14 08:07:15;;;;;;;3.67;3.40;;;;;;;;;;6349061;22;20013;-83
2023/03/14 08:09:40;;;;;;;3.95;3.65;;;;;;;;;;6352709;22;20017;-84
2023/03/14 08:12:07;;;;;;;5.88;3.58;;;;;;;;;;6347300;22;20010;-82
2023/03/14 08:14:33;;;;;;;4.22;2.97;;;;;;;;;;6344732;22;20060;-81
2023/03/14 08:16:58;;;;;;;3.80;3.50;;;;;;;;;;6344956;22;20011;-82
2023/03/14 08:19:24;;;;;;;6.75;3.85;;;;;;;;;;6324449;22;20018;-82
2023/03/14 08:21:51;;;;;;;4.28;3.75;;;;;;;;;;6352172;22;20070;-83
2023/03/14 08:24:17;;;;;;;3.53;3.25;;;;;;;;;;6349552;22;20018;-83
2023/03/14 08:26:43;;;;;;;3.60;3.30;;;;;;;;;;6348612;22;20032;-81
2023/03/14 08:29:12;;;;;;;3.38;3.17;;;;;;;;;;6351236;22;19991;-79
2023/03/14 08:31:38;;;;;;;4.07;3.47;;;;;;;;;;6357456;22;20014;-81
2023/03/14 08:34:06;;;;;;;4.10;3.80;;;;;;;;;;6355825;22;20043;-81
2023/03/14 08:36:32;;;;;;;4.97;3.97;;;;;;;;;;6330729;22;20019;-81
2023/03/14 08:38:58;;;;;;;3.95;3.60;;;;;;;;;;6304608;22;20014;-80
2023/03/14 08:41:24;;;;;;;3.05;2.85;;;;;;;;;;6332658;22;20336;-79
2023/03/14 08:43:50;;;;;;;3.88;3.58;;;;;;;;;;6348699;22;20011;-80
2023/03/14 08:46:16;;;;;;;3.95;3.65;;;;;;;;;;6345577;22;20076;-80
2023/03/14 08:48:42;;;;;;;3.90;3.60;;;;;;;;;;6346491;22;20089;-81
2023/03/14 08:51:08;;;;;;;2.85;2.65;;;;;;;;;;6308728;22;20094;-79
2023/03/14 08:53:34;;;;;;;3.72;3.42;;;;;;;;;;6336005;22;20019;-80
2023/03/14 08:56:00;;;;;;;4.38;3.22;;;;;;;;;;6311093;22;20018;-79
2023/03/14 08:58:27;;;;;;;4.22;3.80;;;;;;;;;;6284280;22;20010;-78
2023/03/14 09:00:52;;;;;;;4.30;3.95;;;;;;;;;;6336409;22;20017;-79
2023/03/14 09:03:19;;;;;;;4.55;4.15;;;;;;;;;;6335862;22;20007;-80
2023/03/14 09:05:45;;;;;;;4.43;4.00;;;;;;;;;;6309214;22;20041;-80
2023/03/14 09:08:11;;;;;;;4.05;3.67;;;;;;;;;;6314883;22;20011;-83
2023/03/14 09:10:38;;;;;;;5.78;3.83;;;;;;;;;;6327147;22;20007;-83
2023/03/14 09:13:04;;;;;;;3.70;3.40;;;;;;;;;;6329986;22;20015;-83
2023/03/14 09:15:30;;;;;;;4.55;4.15;;;;;;;;;;6359106;22;20010;-83
2023/03/14 09:17:56;;;;;;;3.90;3.58;;;;;;;;;;6356697;22;19999;-84
2023/03/14 09:20:21;;;;;;;3.83;3.53;;;;;;;;;;6328123;22;20225;-82
2023/03/14 09:22:48;;;;;;;3.83;3.58;;;;;;;;;;6350372;22;20007;-80
2023/03/14 09:25:14;;;;;;;3.95;3.22;;;;;;;;;;6343825;22;20037;-84
2023/03/14 09:27:40;;;;;;;3.22;3.03;;;;;;;;;;6349448;22;20268;-83
2023/03/14 09:30:06;;;;;;;10.20;4.10;;;;;;;;;;6351621;22;20149;-83
2023/03/14 09:32:32;;;;;;;3.88;3.53;;;;;;;;;;6346539;22;20512;-83
2023/03/14 09:34:58;;;;;;;3.33;3.13;;;;;;;;;;6321888;22;20022;-81
2023/03/14 09:37:24;;;;;;;3.90;3.60;;;;;;;;;;6322128;22;20419;-84
2023/03/14 09:39:49;;;;;;;4.78;4.30;;;;;;;;;;6345064;22;20015;-84
2023/03/14 09:42:17;;;;;;;4.65;3.88;;;;;;;;;;6318627;22;20029;-82
2023/03/14 09:45:05;;;;;;;4.22;3.88;;;;;;;;;;6321905;22;20011;-81
2023/03/14 09:47:31;;;;;;;3.95;3.65;;;;;;;;;;6317492;22;20081;-81
2023/03/14 09:49:57;;;;;;;4.68;4.28;;;;;;;;;;6290033;22;20463;-81
2023/03/14 09:52:41;;;;;;;4.40;4.00;;;;;;;;;;6343568;22;20070;-81
2023/03/14 09:55:17;;;;;;;4.50;4.10;;;;;;;;;;6313649;22;20035;-80
2023/03/14 09:57:43;;;;;;;4.22;3.88;;;;;;;;;;6339787;22;20007;-81
2023/03/14 10:00:14;;;;;;;4.68;4.28;;;;;;;;;;6312822;22;20101;-79
2023/03/14 10:02:40;;;;;;;3.60;3.30;;;;;;;;;;6349616;22;20787;-82
2023/03/14 10:05:17;;;;;;;4.20;3.88;;;;;;;;;;6315491;22;20227;-79
2023/03/14 10:07:43;;;;;;;5.55;3.53;;;;;;;;;;6340003;22;20546;-82
2023/03/14 10:10:13;;;;;;;10.02;3.42;;;;;;;;;;6340334;22;20017;-81
2023/03/14 10:12:39;;;;;;;3.67;3.45;;;;;;;;;;6309711;22;20010;-81
2023/03/14 10:15:09;;;;;;;4.90;3.72;;;;;;;;;;6341927;22;20093;-81
2023/03/14 10:17:39;;;;;;;4.15;3.70;;;;;;;;;;6341199;22;20469;-82
2023/03/14 10:20:05;;;;;;;4.60;4.20;;;;;;;;;;6313928;22;20061;-82
2023/03/14 10:22:31;;;;;;;3.58;2.88;;;;;;;;;;6341275;22;20500;-82
2023/03/14 10:25:05;;;;;;;4.10;3.80;;;;;;;;;;6341945;22;20454;-81
2023/03/14 10:27:34;;;;;;;4.72;3.63;;;;;;;;;;6336940;22;20450;-78
2023/03/14 10:30:01;;;;;;;3.72;3.42;;;;;;;;;;6338728;22;20030;-83
2023/03/14 10:32:28;;;;;;;4.68;4.38;;;;;;;;;;6341495;22;20025;-80
2023/03/14 10:35:06;;;;;;;4.70;4.30;;;;;;;;;;6289031;22;20070;-79
2023/03/14 10:37:32;;;;;;;4.00;3.60;;;;;;;;;;6337884;22;20026;-80
2023/03/14 10:40:00;;;;;;;4.22;3.92;;;;;;;;;;6336741;22;20464;-79
2023/03/14 10:42:29;;;;;;;3.78;3.47;;;;;;;;;;6336951;22;20011;-82
2023/03/14 10:44:56;;;;;;;3.90;3.60;;;;;;;;;;6342377;22;20428;-81
2023/03/14 10:47:22;;;;;;;4.35;3.95;;;;;;;;;;6317272;22;20038;-81
2023/03/14 10:49:48;;;;;;;4.57;4.18;;;;;;;;;;6290335;22;20067;-79
2023/03/14 10:52:16;;;;;;;4.18;3.78;;;;;;;;;;6319914;22;20006;-83
2023/03/14 10:54:44;;;;;;;4.57;4.18;;;;;;;;;;6319592;22;20082;-82
2023/03/14 10:57:11;;;;;;;4.18;3.83;;;;;;;;;;6311715;22;20350;-83
2023/03/14 10:59:37;;;;;;;3.90;3.60;;;;;;;;;;6312328;22;20030;-78
2023/03/14 11:02:06;;;;;;;4.22;3.83;;;;;;;;;;6306221;22;20374;-78
2023/03/14 11:04:44;;;;;;;4.28;3.92;;;;;;;;;;6305274;22;20529;-76
2023/03/14 11:07:13;;;;;;;6.70;4.15;;;;;;;;;;6306105;22;20010;-77
2023/03/14 11:09:46;;;;;;;6.72;4.18;;;;;;;;;;6331958;22;20007;-78
2023/03/14 11:12:27;;;;;;;4.90;4.50;;;;;;;;;;6305457;22;20744;-77
2023/03/14 11:14:54;;;;;;;4.05;3.78;;;;;;;;;;6253371;22;20011;-77
2023/03/14 11:17:23;;;;;;;4.70;4.30;;;;;;;;;;6305431;22;20011;-78
2023/03/14 11:19:57;;;;;;;4.97;4.55;;;;;;;;;;6304933;22;20471;-77
2023/03/14 11:22:42;;;;;;;5.50;4.13;;;;;;;;;;6332980;22;20007;-77
2023/03/14 11:25:12;;;;;;;3.72;3.42;;;;;;;;;;6333417;22;20562;-76
2023/03/14 11:27:43;;;;;;;4.97;4.63;;;;;;;;;;6334320;22;20014;-75
2023/03/14 11:30:09;;;;;;;;;;;;;;;;;;6262989;22;20452;-81
2023/03/14 11:32:35;;;;;;;4.10;3.80;;;;;;;;;;6340212;22;19914;-80
2023/03/14 11:35:03;;;;;;;4.93;4.50;;;;;;;;;;6321847;22;20006;-84
2023/03/14 11:37:33;;;;;;;5.75;4.65;;;;;;;;;;6326535;22;20018;-82
2023/03/14 11:40:06;;;;;;;4.05;3.75;;;;;;;;;;6299992;22;20019;-83
2023/03/14 11:42:32;;;;;;;5.05;4.47;;;;;;;;;;6353503;22;20018;-82
2023/03/14 11:44:58;;;;;;;4.45;4.13;;;;;;;;;;6332822;22;19995;-82
2023/03/14 11:47:26;;;;;;;5.93;4.78;;;;;;;;;;6326957;22;20030;-83
2023/03/14 11:50:01;;;;;;;4.38;4.07;;;;;;;;;;6329442;22;20086;-83
2023/03/14 11:52:31;;;;;;;4.35;3.45;;;;;;;;;;6282637;22;20017;-79
2023/03/14 11:55:12;;;;;;;5.17;4.63;;;;;;;;;;6333915;22;20010;-78
2023/03/14 11:57:39;;;;;;;4.25;3.85;;;;;;;;;;6306567;22;20236;-79
2023/03/14 12:00:09;;;;;;;4.72;4.18;;;;;;;;;;6306336;22;20023;-78
2023/03/14 12:02:44;;;;;;;4.20;3.72;;;;;;;;;;6334058;22;20034;-76
2023/03/14 12:05:25;;;;;;;5.65;4.13;;;;;;;;;;6333552;22;20014;-77
2023/03/14 12:08:14;;;;;;;4.93;4.43;;;;;;;;;;6332774;22;20011;-78
2023/03/14 12:10:45;;;;;;;4.43;4.10;;;;;;;;;;6282260;22;20007;-82
2023/03/14 12:13:11;;;;;;;4.32;4.00;;;;;;;;;;6307927;22;20011;-80
2023/03/14 12:15:39;;;;;;;4.75;4.30;;;;;;;;;;6306351;22;20082;-78
2023/03/14 12:18:25;;;;;;;4.22;3.50;;;;;;;;;;6305747;22;20010;-79
2023/03/14 12:20:55;;;;;;;6.78;3.90;;;;;;;;;;6333010;22;20080;-79
2023/03/14 12:23:21;;;;;;;5.00;4.70;;;;;;;;;;6307255;22;20519;-78
2023/03/14 12:25:47;;;;;;;5.13;4.63;;;;;;;;;;6338820;22;20033;-80
2023/03/14 12:28:18;;;;;;;4.50;4.20;;;;;;;;;;6339973;22;20011;-81
2023/03/14 12:30:44;;;;;;;6.45;3.95;;;;;;;;;;6340047;22;20003;-81
2023/03/14 12:33:11;;;;;;;5.05;4.55;;;;;;;;;;6336975;22;20029;-80
2023/03/14 12:35:38;;;;;;;4.13;3.83;;;;;;;;;;6339005;22;20006;-81
2023/03/14 12:38:24;;;;;;;4.25;3.92;;;;;;;;;;6342802;22;20066;-81
2023/03/14 12:40:53;;;;;;;4.88;4.57;;;;;;;;;;6323585;22;20015;-83
2023/03/14 12:43:33;;;;;;;4.55;3.88;;;;;;;;;;6341325;22;20404;-82
2023/03/14 12:46:15;;;;;;;4.95;4.45;;;;;;;;;;6341716;22;20009;-82
2023/03/14 12:48:41;;;;;;;4.57;4.18;;;;;;;;;;6310878;22;20010;-81
2023/03/14 12:51:14;;;;;;;4.15;3.83;;;;;;;;;;6338689;22;20006;-80
2023/03/14 12:53:43;;;;;;;12.52;4.68;;;;;;;;;;6288304;22;20021;-82
2023/03/14 12:56:32;;;;;;;3.45;3.25;;;;;;;;;;6286644;22;20013;-81
2023/03/14 12:58:58;;;;;;;3.47;3.28;;;;;;;;;;6341088;22;20444;-80
2023/03/14 13:01:24;;;;;;;3.83;3.53;;;;;;;;;;6341935;22;20077;-82
2023/03/14 13:03:53;;;;;;;5.45;4.03;;;;;;;;;;6313942;22;20007;-81
2023/03/14 13:06:38;;;;;;;4.57;3.95;;;;;;;;;;6343695;22;20015;-81
2023/03/14 13:09:22;;;;;;;5.45;4.35;;;;;;;;;;6344247;22;20015;-82
2023/03/14 13:11:48;;;;;;;4.88;4.47;;;;;;;;;;6349752;22;20017;-83
2023/03/14 13:14:14;;;;;;;6.18;5.57;;;;;;;;;;6348309;22;20007;-82
2023/03/14 13:16:40;;;;;;;6.43;5.82;;;;;;;;;;6324691;22;20016;-82
2023/03/14 13:19:25;;;;;;;5.40;4.85;;;;;;;;;;6351690;22;20021;-80
2023/03/14 13:22:02;;;;;;;3.80;3.58;;;;;;;;;;6316261;22;20097;-81
2023/03/14 13:24:30;;;;;;;4.88;4.47;;;;;;;;;;6341453;22;20007;-82
2023/03/14 13:26:57;;;;;;;4.35;3.85;;;;;;;;;;6341640;22;20018;-83
2023/03/14 13:29:24;;;;;;;4.82;4.45;;;;;;;;;;6338960;22;20017;-82
2023/03/14 13:31:51;;;;;;;7.75;4.95;;;;;;;;;;6336383;22;20094;-80
2023/03/14 13:34:17;;;;;;;5.40;5.00;;;;;;;;;;6307005;22;20022;-80
2023/03/14 13:36:43;;;;;;;4.80;4.28;;;;;;;;;;6335417;22;20011;-81
2023/03/14 13:39:13;;;;;;;5.88;5.20;;;;;;;;;;6335160;22;20553;-82
2023/03/14 13:41:42;;;;;;;4.25;3.88;;;;;;;;;;6334182;22;20526;-81
2023/03/14 13:44:12;;;;;;;4.93;4.43;;;;;;;;;;6306266;22;20148;-79
2023/03/14 13:46:38;;;;;;;4.75;4.35;;;;;;;;;;6302930;22;20011;-79
2023/03/14 13:49:05;;;;;;;4.93;4.43;;;;;;;;;;6332932;22;20017;-77
2023/03/14 13:51:32;;;;;;;4.55;4.00;;;;;;;;;;6305418;22;20017;-79
2023/03/14 13:53:59;;;;;;;4.05;3.67;;;;;;;;;;6332301;22;20108;-77
2023/03/14 13:56:27;;;;;;;6.97;3.85;;;;;;;;;;6254608;22;20082;-79
2023/03/14 13:58:53;;;;;;;6.00;4.40;;;;;;;;;;6331839;22;20014;-76
2023/03/14 14:01:20;;;;;;;5.03;4.53;;;;;;;;;;6331490;22;20014;-77
2023/03/14 14:03:48;;;;;;;5.22;4.05;;;;;;;;;;6331707;22;20034;-78
2023/03/14 14:06:27;;;;;;;8.60;4.50;;;;;;;;;;6306588;22;20010;-78
2023/03/14 14:08:54;;;;;;;4.07;3.45;;;;;;;;;;6280779;22;20097;-77
2023/03/14 14:11:25;;;;;;;4.85;4.40;;;;;;;;;;6332665;22;20101;-77
2023/03/14 14:13:51;;;;;;;;;;;;;;;;;;6306242;22;20014;-78
2023/03/14 14:16:17;;;;;;;4.78;4.40;;;;;;;;;;6332845;22;19907;-77
2023/03/14 14:18:43;;;;;;;4.43;4.03;;;;;;;;;;6332672;22;20041;-76
2023/03/14 14:21:12;;;;;;;6.32;4.35;;;;;;;;;;6333421;22;20502;-76
2023/03/14 14:23:38;;;;;;;4.40;4.00;;;;;;;;;;6307288;22;20335;-78
2023/03/14 14:26:05;;;;;;;5.60;4.30;;;;;;;;;;6333672;22;20021;-76
2023/03/14 14:28:31;;;;;;;4.40;3.80;;;;;;;;;;6306654;22;20034;-77
2023/03/14 14:31:00;;;;;;;4.65;4.15;;;;;;;;;;6306262;22;20064;-78
2023/03/14 14:33:26;;;;;;;5.35;4.40;;;;;;;;;;6333068;22;20018;-77
2023/03/14 14:35:54;;;;;;;5.93;3.65;;;;;;;;;;6306330;22;20086;-78
2023/03/14 14:38:20;;;;;;;5.38;4.88;;;;;;;;;;6281615;22;20014;-76
2023/03/14 14:40:48;;;;;;;4.65;4.25;;;;;;;;;;6345765;22;20028;-83
2023/03/14 14:43:16;;;;;;;4.72;4.32;;;;;;;;;;6312015;22;20014;-80
2023/03/14 14:45:42;;;;;;;5.30;4.72;;;;;;;;;;6336784;22;19995;-81
2023/03/14 14:48:09;;;;;;;5.28;4.80;;;;;;;;;;6313491;22;20109;-80
2023/03/14 14:50:51;;;;;;;6.05;4.18;;;;;;;;;;6333721;22;20015;-81
2023/03/14 14:53:28;;;;;;;6.13;4.53;;;;;;;;;;6285004;22;20087;-81
2023/03/14 14:55:55;;;;;;;5.45;4.68;;;;;;;;;;6333617;22;20010;-80
2023/03/14 14:58:25;;;;;;;4.55;4.25;;;;;;;;;;6335802;22;20035;-81